createdAt,value
2023-11-06T00:09:40.387Z,18.27
2023-11-06T00:19:44.033Z,18.63
2023-11-06T00:29:45.878Z,17.13
2023-11-06T00:39:47.601Z,18.90
2023-11-06T00:49:49.370Z,18.50
2023-11-06T00:59:51.165Z,17.75
2023-11-06T01:09:52.853Z,16.55
2023-11-06T01:19:54.932Z,15.73
2023-11-06T01:29:56.761Z,16.70
2023-11-06T01:39:58.499Z,15.65
2023-11-06T01:50:00.455Z,16.30
2023-11-06T02:00:02.468Z,14.10
2023-11-06T02:10:04.621Z,11.32
2023-11-06T02:20:09.516Z,11.85
2023-11-06T02:30:13.124Z,11.82
2023-11-06T02:50:18.572Z,8.68
2023-11-06T03:10:24.158Z,3.72
2023-11-06T03:20:25.759Z,3.00
2023-11-06T03:30:33.399Z,1.98
2023-11-06T03:40:35.228Z,1.00
2023-11-06T03:50:38.160Z,1.45
2023-11-06T04:10:41.851Z,2.30
2023-11-06T04:20:43.653Z,2.80
2023-11-06T04:30:45.536Z,0.55
2023-11-06T04:40:47.354Z,1.55
2023-11-06T04:50:50.065Z,1.95
2023-11-06T05:00:52.888Z,0.93
2023-11-06T05:10:54.564Z,1.75
2023-11-06T05:20:56.564Z,3.92
2023-11-06T05:30:58.303Z,1.20
2023-11-06T05:41:01.041Z,5.57
2023-11-06T05:51:04.411Z,1.90
2023-11-06T06:01:06.924Z,1.77
2023-11-06T06:11:11.843Z,4.10
2023-11-06T06:21:15.633Z,6.20
2023-11-06T06:31:17.924Z,2.67
2023-11-06T06:41:19.749Z,3.37
2023-11-06T06:51:29.593Z,3.22
2023-11-06T07:01:31.804Z,5.78
2023-11-06T07:11:43.062Z,3.63
2023-11-06T07:21:45.002Z,4.32
2023-11-06T07:31:46.997Z,5.38
2023-11-06T07:41:48.751Z,1.27
2023-11-06T07:51:50.418Z,2.15
2023-11-06T08:01:52.399Z,4.88
2023-11-06T08:11:54.151Z,5.53
2023-11-06T08:21:59.014Z,5.63
2023-11-06T08:32:02.912Z,6.10
2023-11-06T08:42:06.410Z,2.88
2023-11-06T08:52:08.277Z,3.08
2023-11-06T09:02:10.561Z,2.30
2023-11-06T09:12:17.424Z,3.55
2023-11-06T09:22:21.066Z,5.18
2023-11-06T09:32:23.500Z,4.68
2023-11-06T09:42:26.852Z,3.72
2023-11-06T09:52:28.621Z,3.65
2023-11-06T10:02:30.439Z,3.20
2023-11-06T10:12:32.391Z,2.55
2023-11-06T10:22:35.103Z,4.15
2023-11-06T10:32:37.513Z,3.22
2023-11-06T10:42:45.770Z,5.13
2023-11-06T10:52:56.491Z,3.90
2023-11-06T11:03:00.018Z,1.48
2023-11-06T11:13:04.900Z,1.55
2023-11-06T11:23:10.974Z,5.68
2023-11-06T11:33:12.901Z,2.78
2023-11-06T11:53:48.537Z,1.53
2023-11-06T12:03:50.214Z,4.22
2023-11-06T12:13:54.887Z,3.65
2023-11-06T12:23:57.060Z,0.85
2023-11-06T12:33:58.859Z,5.18
2023-11-06T12:44:09.637Z,2.85
2023-11-06T12:54:14.377Z,0.90
2023-11-06T13:04:18.141Z,2.30
2023-11-06T13:14:22.335Z,4.38
2023-11-06T13:24:25.874Z,2.28
2023-11-06T13:34:29.622Z,3.15
2023-11-06T13:44:36.693Z,4.65
2023-11-06T13:54:42.767Z,1.58
2023-11-06T14:04:52.390Z,1.42
2023-11-06T14:14:55.853Z,3.88
2023-11-06T14:24:58.006Z,1.33
2023-11-06T14:35:00.355Z,6.03
2023-11-06T14:45:02.131Z,5.35
2023-11-06T14:55:16.428Z,2.83
2023-11-06T15:05:21.225Z,3.10
2023-11-06T15:15:23.568Z,2.67
2023-11-06T15:25:26.184Z,5.07
2023-11-06T15:35:28.108Z,6.25
2023-11-06T15:55:32.082Z,4.30
2023-11-06T16:05:33.934Z,8.90
2023-11-06T16:15:36.881Z,5.13
2023-11-06T16:25:38.561Z,6.80
2023-11-06T16:35:41.878Z,6.33
2023-11-06T16:45:43.691Z,4.82
2023-11-06T16:55:45.956Z,8.47
2023-11-06T17:05:48.906Z,10.35
2023-11-06T17:15:50.999Z,8.07
2023-11-06T17:25:52.701Z,7.67
2023-11-06T17:35:54.680Z,13.73
2023-11-06T17:45:56.764Z,11.10
2023-11-06T17:55:58.728Z,8.90
2023-11-06T18:06:01.295Z,15.37
2023-11-06T18:16:04.411Z,7.03
2023-11-06T18:26:08.232Z,9.10
2023-11-06T18:36:11.326Z,11.27
2023-11-06T18:46:14.204Z,11.10
2023-11-06T19:06:25.554Z,11.10
2023-11-06T19:16:30.364Z,12.25
2023-11-06T19:26:37.359Z,15.63
2023-11-06T19:36:47.427Z,11.93
2023-11-06T19:46:52.140Z,12.55
2023-11-06T19:56:56.742Z,12.60
2023-11-06T20:07:01.312Z,15.93
2023-11-06T20:17:12.470Z,12.98
2023-11-06T20:27:20.226Z,17.35
2023-11-06T20:37:22.596Z,10.65
2023-11-06T20:47:26.247Z,14.20
2023-11-06T20:57:28.993Z,16.52
2023-11-06T21:07:36.432Z,11.57
2023-11-06T21:17:41.337Z,13.45
2023-11-06T21:27:45.314Z,15.77
2023-11-06T21:37:48.064Z,13.05
2023-11-06T21:47:50.418Z,23.70
2023-11-06T21:57:53.310Z,15.67
2023-11-06T22:07:54.991Z,14.02
2023-11-06T22:18:01.687Z,13.18
2023-11-06T22:28:05.134Z,16.45
2023-11-06T22:38:08.171Z,18.63
2023-11-06T22:48:10.827Z,15.82
2023-11-06T22:58:12.704Z,14.65
2023-11-06T23:08:15.862Z,16.10
2023-11-06T23:28:20.463Z,12.40
2023-11-06T23:38:22.360Z,14.30
2023-11-06T23:48:24.157Z,16.08
2023-11-06T23:58:26.891Z,14.77
